CDT,Max TemperatureF,Mean TemperatureF,Min TemperatureF,Max Dew PointF,MeanDew PointF,Min DewpointF,Max Humidity, Mean Humidity, Min Humidity, Max Sea Level PressureIn, Mean Sea Level PressureIn, Min Sea Level PressureIn, Max VisibilityMiles, Mean VisibilityMiles, Min VisibilityMiles, Max Wind SpeedMPH, Mean Wind SpeedMPH, Max Gust SpeedMPH,PrecipitationIn, CloudCover, Events, WindDirDegrees
2013-9-1,85,73,61,68,56,46,86,58,26,30.11,30.05,29.93,10,10,10,12,7,20,0.00,0,Thunderstorm,10
2013-9-2,87,69,52,61,56,51,95,66,33,30.16,30.10,30.03,10,10,10,14,4,17,0.00,0,,143
2013-9-3,93,75,57,61,57,51,94,58,25,30.10,30.05,29.98,10,10,10,18,9,24,0.00,0,,148
2013-9-4,96,80,65,62,59,56,78,55,26,30.17,30.08,30.04,10,10,10,18,9,24,0.00,0,Thunderstorm,139
2013-9-5,95,81,68,64,59,56,76,52,27,30.16,30.11,30.05,10,10,10,17,9,22,0.00,0,,145
2013-9-6,104,84,64,64,55,47,88,47,15,30.09,30.00,29.90,10,10,7,16,9,21,0.00,0,,172
2013-9-7,100,80,61,70,60,47,85,53,24,30.00,29.96,29.92,10,10,7,13,6,16,0.00,0,,95
2013-9-8,97,81,65,72,64,54,98,65,30,29.97,29.89,29.79,10,7,0,16,6,21,0.00,2,Fog,118
2013-9-9,99,84,68,59,53,41,69,37,14,29.88,29.82,29.78,10,10,10,23,11,28,0.00,0,,185
2013-9-10,88,78,67,64,62,55,87,62,40,30.12,30.00,29.90,10,10,10,17,7,24,0.03,0,Thunderstorm,49
2013-9-11,77,70,64,67,64,62,94,85,67,30.21,30.16,30.11,10,9,2,15,6,,0.74,5,Rain-Thunderstorm,70
2013-9-12,79,71,63,65,61,54,96,75,45,30.27,30.23,30.19,10,8,3,17,5,24,0.01,2,Rain,76
2013-9-13,69,63,57,55,52,48,87,68,48,30.24,30.17,30.06,10,10,10,17,7,17,0.00,5,Rain,142
2013-9-14,77,68,58,63,56,52,87,70,56,30.06,29.96,29.86,10,10,10,20,9,28,0.00,5,Rain,161
2013-9-15,68,64,59,64,58,54,94,82,64,30.27,30.10,29.89,10,10,5,20,9,28,0.15,7,Rain-Thunderstorm,35
2013-9-16,59,58,56,55,54,52,97,87,78,30.31,30.25,30.17,10,10,3,12,8,,0.00,8,Rain,106
2013-9-17,83,70,56,68,62,55,97,86,58,30.16,29.97,29.81,10,7,2,16,10,23,0.01,6,Rain,163
2013-9-18,93,79,65,66,64,60,90,66,34,29.81,29.73,29.67,10,10,10,16,12,24,0.00,0,,177
2013-9-19,69,62,48,65,54,47,94,76,46,30.13,29.94,29.74,10,10,10,28,11,38,0.07,3,Rain-Thunderstorm,332
2013-9-20,75,58,42,52,46,41,95,69,33,30.18,30.10,30.01,10,10,7,12,5,16,0.00,0,,308
2013-9-21,84,64,45,54,49,44,95,62,26,30.04,29.92,29.81,10,10,10,18,5,26,0.00,0,,165
2013-9-22,84,71,58,54,49,45,64,49,31,29.82,29.75,29.67,10,10,10,28,15,38,0.00,0,,164
2013-9-23,73,64,57,59,51,47,93,69,44,29.77,29.63,29.54,10,10,4,25,18,38,0.32,4,Rain,136
2013-9-24,75,64,53,55,53,48,92,73,39,30.02,29.94,29.77,10,10,2,21,12,28,0.00,3,,345
2013-9-25,80,63,46,57,52,46,97,67,37,29.95,29.78,29.61,10,9,2,28,10,38,0.00,0,,144
2013-9-26,91,76,60,58,54,47,75,51,22,29.68,29.64,29.59,10,10,10,23,16,29,0.00,0,,155
2013-9-27,77,64,51,60,56,50,97,66,50,29.82,29.72,29.66,10,9,2,43,14,53,1.41,3,Rain-Thunderstorm,154
2013-9-28,119,82,46,90,45,35,97,67,31,30.08,30.01,29.80,10,10,7,20,13,25,0.11,2,Rain,292
2013-9-29,79,61,43,46,42,38,84,52,27,30.08,29.96,29.83,10,10,10,24,8,32,0.00,0,,202
2013-9-30,83,66,48,54,49,44,90,59,27,29.85,29.78,29.71,10,10,10,17,8,23,0.00,0,,173